Time;durP1;ratioP1;P1;durP2;ratioP2;P2;SDS_P1;SDS_P2;PMS_P1;PMS_P2;Temp;Humidity;BMP_temperature;BMP_pressure;BME280_temperature;BME280_humidity;BME280_pressure;Samples;Min_cycle;Max_cycle;Signal;HPM_P1;HPM_P2
2022/05/23 00:01:59;;;;;;;18.53;11.20;;;8.80;1.00;;;;;;10410894;28;20224;-78
2022/05/23 00:07:30;;;;;;;21.60;11.10;;;8.80;1.00;;;;;;10404843;28;20195;-77
2022/05/23 00:12:52;;;;;;;18.00;11.43;;;8.60;1.00;;;;;;10394430;28;20360;-77
2022/05/23 00:18:14;;;;;;;19.67;10.30;;;8.60;1.00;;;;;;10394812;28;20283;-77
2022/05/23 00:23:35;;;;;;;18.13;9.27;;;8.50;1.00;;;;;;10395358;28;20238;-78
2022/05/23 00:28:57;;;;;;;13.97;8.57;;;8.40;1.00;;;;;;10394387;28;20196;-78
2022/05/23 00:39:58;;;;;;;15.10;8.23;;;8.30;1.00;;;;;;10394593;28;20261;-78
2022/05/23 00:45:19;;;;;;;17.70;8.90;;;8.30;1.00;;;;;;10395027;28;20218;-77
2022/05/23 00:50:45;;;;;;;15.07;8.90;;;8.30;1.00;;;;;;10394988;28;20197;-78
2022/05/23 00:56:08;;;;;;;17.33;9.27;;;8.30;1.00;;;;;;10395088;28;20233;-78
2022/05/23 01:01:34;;;;;;;19.93;9.67;;;8.30;1.00;;;;;;10391773;28;20289;-79
2022/05/23 01:06:56;;;;;;;13.83;8.73;;;8.10;1.00;;;;;;10408775;28;20236;-79
2022/05/23 01:12:18;;;;;;;12.93;7.80;;;8.00;1.00;;;;;;10393501;28;20539;-79
2022/05/23 01:18:10;;;;;;;11.77;6.53;;;7.90;1.00;;;;;;10394172;28;20222;-79
2022/05/23 01:23:46;;;;;;;9.80;5.90;;;7.80;1.00;;;;;;10386774;28;20249;-79
2022/05/23 01:29:16;;;;;;;8.53;5.20;;;7.80;1.00;;;;;;10386874;28;20229;-79
2022/05/23 01:34:44;;;;;;;7.50;5.30;;;7.90;1.00;;;;;;10380831;28;20549;-79
2022/05/23 01:40:42;;;;;;;7.03;4.73;;;7.80;1.00;;;;;;10400265;28;20385;-79
2022/05/23 01:46:28;;;;;;;11.27;6.67;;;;;;;;;;10389647;28;20205;-79
2022/05/23 01:52:23;;;;;;;12.80;7.30;;;7.70;1.00;;;;;;10400948;28;20219;-79
2022/05/23 01:57:47;;;;;;;12.20;6.70;;;7.50;1.00;;;;;;10376585;28;20204;-79
2022/05/23 02:03:09;;;;;;;10.53;6.63;;;7.40;1.00;;;;;;10412544;28;20519;-80
2022/05/23 02:08:30;;;;;;;9.57;7.00;;;7.30;1.00;;;;;;10385083;28;20211;-79
2022/05/23 02:13:51;;;;;;;8.70;6.10;;;7.30;1.00;;;;;;10399755;28;20211;-78
2022/05/23 02:19:21;;;;;;;10.43;6.43;;;7.30;1.00;;;;;;10385955;28;20192;-80
2022/05/23 02:24:52;;;;;;;10.87;7.03;;;7.30;1.00;;;;;;10398957;28;20223;-79
2022/05/23 02:30:15;;;;;;;10.97;7.20;;;7.30;1.00;;;;;;10383538;28;20403;-78
2022/05/23 02:35:37;;;;;;;14.77;8.10;;;7.40;1.00;;;;;;10397356;28;20252;-79
2022/05/23 02:40:59;;;;;;;17.90;8.90;;;7.30;1.00;;;;;;10397966;28;20196;-79
2022/05/23 02:46:20;;;;;;;14.27;8.00;;;7.20;1.00;;;;;;10369681;28;20282;-79
2022/05/23 02:51:43;;;;;;;13.17;8.80;;;7.20;1.00;;;;;;10370194;28;20201;-80
2022/05/23 02:57:06;;;;;;;15.50;7.87;;;7.20;1.00;;;;;;10396248;28;20207;-79
2022/05/23 03:08:12;;;;;;;11.50;7.33;;;7.30;1.00;;;;;;10396665;28;20226;-79
2022/05/23 03:13:35;;;;;;;11.33;7.17;;;7.30;1.00;;;;;;10382215;28;20489;-79
2022/05/23 03:18:56;;;;;;;11.13;7.30;;;7.30;1.00;;;;;;10359031;28;20191;-80
2022/05/23 03:29:58;;;;;;;13.73;8.03;;;7.40;1.00;;;;;;10382105;28;20198;-79
2022/05/23 03:35:29;;;;;;;12.83;7.57;;;7.30;1.00;;;;;;10395767;28;20309;-80
2022/05/23 03:40:52;;;;;;;14.53;7.47;;;7.40;1.00;;;;;;10380858;28;20489;-79
2022/05/23 03:46:14;;;;;;;13.40;8.07;;;7.60;1.00;;;;;;10381631;28;20204;-79
2022/05/23 03:51:37;;;;;;;14.37;8.50;;;7.70;1.00;;;;;;10395510;28;20196;-79
2022/05/23 03:57:00;;;;;;;11.93;8.00;;;7.70;1.00;;;;;;10394452;28;20394;-79
2022/05/23 04:02:21;;;;;;;11.93;7.90;;;7.90;1.00;;;;;;10414083;28;20229;-79
2022/05/23 04:07:43;;;;;;;12.40;7.73;;;8.00;1.00;;;;;;10382335;28;20348;-79
2022/05/23 04:13:12;;;;;;;12.90;7.50;;;8.10;1.00;;;;;;10394306;28;20197;-79
2022/05/23 04:18:36;;;;;;;9.90;7.20;;;8.20;1.00;;;;;;10394987;28;20265;-78
2022/05/23 04:23:58;;;;;;;12.50;7.20;;;8.30;1.00;;;;;;10394514;28;20373;-79
2022/05/23 04:29:19;;;;;;;8.37;6.70;;;8.40;5.50;;;;;;10380666;28;20197;-79
2022/05/23 04:40:23;;;;;;;9.40;5.97;;;8.90;12.00;;;;;;10394554;28;20195;-78
2022/05/23 04:45:45;;;;;;;11.70;6.73;;;9.10;19.90;;;;;;10379999;28;20231;-79
2022/05/23 04:51:17;;;;;;;10.33;6.43;;;9.40;49.30;;;;;;10381973;28;20196;-78
2022/05/23 04:56:41;;;;;;;10.90;5.67;;;9.60;42.40;;;;;;10368237;28;20200;-79
2022/05/23 05:02:09;;;;;;;9.10;5.30;;;9.80;53.40;;;;;;10419004;28;20368;-79
2022/05/23 05:07:31;;;;;;;8.90;5.17;;;10.10;60.90;;;;;;10392598;28;20207;-79
2022/05/23 05:12:55;;;;;;;5.80;4.33;;;10.40;56.60;;;;;;10400955;28;20200;-79
2022/05/23 05:18:18;;;;;;;4.80;3.97;;;10.60;49.20;;;;;;10373636;28;20511;-80
2022/05/23 05:23:46;;;;;;;5.97;3.70;;;10.90;45.00;;;;;;10400281;28;20519;-78
2022/05/23 05:29:17;;;;;;;3.50;2.20;;;11.10;31.30;;;;;;10388284;28;20192;-79
2022/05/23 05:34:47;;;;;;;2.47;1.83;;;11.30;1.00;;;;;;10385689;28;20232;-79
2022/05/23 05:40:10;;;;;;;4.43;1.70;;;11.50;1.00;;;;;;10400067;28;20196;-79
2022/05/23 05:45:44;;;;;;;2.60;1.90;;;11.80;1.00;;;;;;10399721;28;20238;-79
2022/05/23 05:51:33;;;;;;;2.40;2.00;;;12.00;1.00;;;;;;10400117;28;20205;-79
2022/05/23 05:57:04;;;;;;;5.00;1.80;;;12.20;1.00;;;;;;10398814;28;20490;-78
2022/05/23 06:02:26;;;;;;;2.72;1.88;;;12.40;1.00;;;;;;10394501;28;20232;-79
2022/05/23 06:13:45;;;;;;;3.85;2.15;;;12.80;1.00;;;;;;10384206;28;20552;-78
2022/05/23 06:19:24;;;;;;;7.90;4.50;;;13.20;1.00;;;;;;10373264;28;20198;-78
2022/05/23 06:25:13;;;;;;;7.95;3.97;;;13.60;1.00;;;;;;10387233;28;20252;-79
2022/05/23 06:30:36;;;;;;;4.75;3.03;;;14.00;1.00;;;;;;10384643;28;20191;-78
2022/05/23 06:36:06;;;;;;;4.07;3.08;;;14.40;1.00;;;;;;10397387;28;20237;-79
2022/05/23 06:41:27;;;;;;;3.80;2.55;;;15.30;99.90;;;;;;10397441;28;20518;-79
2022/05/23 06:47:03;;;;;;;3.58;2.60;;;16.10;99.90;;;;;;10383733;28;20207;-78
2022/05/23 06:52:44;;;;;;;1.85;1.50;;;17.00;1.00;;;;;;10397514;28;20238;-79
2022/05/23 06:58:26;;;;;;;2.00;1.70;;;17.60;1.00;;;;;;10397765;28;20242;-79
2022/05/23 07:03:47;;;;;;;5.22;3.50;;;18.30;1.00;;;;;;10427250;28;20227;-79
2022/05/23 07:15:00;;;;;;;4.25;2.20;;;19.10;1.00;;;;;;10382320;28;20205;-79
2022/05/23 07:20:25;;;;;;;1.65;1.52;;;19.60;1.00;;;;;;10368885;28;20272;-79
2022/05/23 07:26:09;;;;;;;2.17;1.75;;;19.80;99.90;;;;;;10299790;28;20241;-81
2022/05/23 07:31:57;;;;;;;4.18;1.80;;;20.00;99.90;;;;;;10339226;28;20269;-80
2022/05/23 07:37:20;;;;;;;1.95;1.48;;;20.40;99.90;;;;;;10348939;28;20242;-82
2022/05/23 07:42:43;;;;;;;3.15;1.92;;;20.90;99.90;;;;;;10321867;28;20217;-83
2022/05/23 07:48:05;;;;;;;4.00;1.92;;;21.30;99.90;;;;;;10332977;28;20209;-78
2022/05/23 08:05:08;;;;;;;2.78;2.42;;;22.00;99.90;;;;;;10335066;28;20546;-85
2022/05/23 08:10:35;;;;;;;3.13;1.80;;;21.80;79.60;;;;;;10334532;28;20206;-83
2022/05/23 08:15:56;;;;;;;2.28;1.63;;;22.20;52.90;;;;;;10335466;28;20206;-83
2022/05/23 08:21:19;;;;;;;2.47;1.45;;;22.50;16.90;;;;;;10335183;28;20193;-78
2022/05/23 08:26:44;;;;;;;1.67;1.17;;;22.90;1.00;;;;;;10345080;28;20225;-83
2022/05/23 08:32:11;;;;;;;1.70;1.23;;;23.10;1.00;;;;;;10342878;28;20398;-80
2022/05/23 08:37:39;;;;;;;1.33;1.20;;;23.40;1.00;;;;;;10343235;28;20205;-79
2022/05/23 08:43:09;;;;;;;3.17;1.63;;;23.80;1.00;;;;;;10342544;28;20252;-84
2022/05/23 08:48:43;;;;;;;3.38;1.33;;;23.90;1.00;;;;;;10342799;28;20220;-84
2022/05/23 08:54:44;;;;;;;3.15;1.90;;;24.20;1.00;;;;;;10342400;28;20198;-83
2022/05/23 09:00:49;;;;;;;3.92;1.85;;;24.10;1.00;;;;;;10351096;28;20205;-80
2022/05/23 09:06:15;;;;;;;5.13;2.05;;;24.20;1.00;;;;;;10346431;28;20233;-80
2022/05/23 09:11:46;;;;;;;7.60;2.70;;;24.60;1.00;;;;;;10354974;28;20273;-81
2022/05/23 09:17:23;;;;;;;3.08;2.28;;;24.40;1.00;;;;;;10314398;28;20536;-80
2022/05/23 09:22:50;;;;;;;7.57;4.25;;;24.60;1.00;;;;;;10327998;28;20226;-79
2022/05/23 09:28:36;;;;;;;2.40;1.70;;;24.90;1.00;;;;;;10338166;28;20214;-80
2022/05/23 09:33:59;;;;;;;2.78;1.40;;;25.00;1.00;;;;;;10354638;28;20271;-82
2022/05/23 09:52:49;;;;;;;2.28;1.60;;;25.20;1.00;;;;;;10351635;28;20248;-81
2022/05/23 09:58:21;;;;;;;2.08;1.48;;;25.70;1.00;;;;;;10317252;28;20413;-82
2022/05/23 10:03:49;;;;;;;1.30;1.20;;;25.30;1.00;;;;;;10373072;28;20238;-80
2022/05/23 10:09:32;;;;;;;1.35;1.25;;;25.50;1.00;;;;;;10335718;28;20240;-79
2022/05/23 10:15:18;;;;;;;2.28;1.52;;;25.80;1.00;;;;;;10338596;28;20208;-79
2022/05/23 10:20:43;;;;;;;3.13;2.50;;;25.70;1.00;;;;;;10353278;28;20245;-81
2022/05/23 10:26:25;;;;;;;2.85;1.38;;;25.80;1.00;;;;;;10350813;28;20236;-80
2022/05/23 10:32:02;;;;;;;2.25;1.42;;;25.90;1.00;;;;;;10351889;28;20221;-83
2022/05/23 10:37:29;;;;;;;1.70;1.35;;;26.20;1.00;;;;;;10354185;28;20249;-84
2022/05/23 10:43:01;;;;;;;1.50;1.17;;;26.00;1.00;;;;;;10313631;28;20582;-80
2022/05/23 10:48:29;;;;;;;3.15;0.98;;;26.10;1.00;;;;;;10351004;28;20248;-81
2022/05/23 10:53:50;;;;;;;1.25;0.80;;;26.10;1.00;;;;;;10323246;28;20198;-81
2022/05/23 10:59:40;;;;;;;1.00;0.88;;;26.10;1.00;;;;;;10351164;28;20208;-82
2022/05/23 11:05:26;;;;;;;1.95;1.55;;;26.20;1.00;;;;;;10367028;28;20226;-81
2022/05/23 11:10:57;;;;;;;1.50;1.17;;;26.30;1.00;;;;;;10350242;28;20285;-80
2022/05/23 11:16:31;;;;;;;1.77;1.15;;;25.90;1.00;;;;;;10350405;28;20229;-83
2022/05/23 11:22:20;;;;;;;3.70;2.03;;;26.20;1.00;;;;;;10332112;28;20409;-84
2022/05/23 11:33:58;;;;;;;2.55;1.98;;;25.70;1.00;;;;;;10355465;28;20243;-85
2022/05/23 11:39:56;;;;;;;2.22;1.55;;;25.00;1.00;;;;;;10373504;28;20204;-81
2022/05/23 11:45:57;;;;;;;8.50;1.50;;;25.30;1.00;;;;;;10370325;28;20321;-81
2022/05/23 11:51:27;;;;;;;2.55;1.40;;;25.60;1.00;;;;;;10385865;28;20213;-82
2022/05/23 11:57:01;;;;;;;2.67;1.40;;;25.40;1.00;;;;;;10307097;28;20225;-80
2022/05/23 12:02:27;;;;;;;2.17;1.23;;;25.20;1.00;;;;;;10336438;28;20217;-81
2022/05/23 12:07:56;;;;;;;2.72;1.20;;;24.80;1.00;;;;;;10328271;28;20520;-80
2022/05/23 12:13:27;;;;;;;1.63;1.10;;;25.30;1.00;;;;;;10335247;28;20200;-81
2022/05/23 12:18:49;;;;;;;2.22;1.23;;;25.30;1.00;;;;;;10334160;28;20560;-84
2022/05/23 12:24:21;;;;;;;1.23;1.13;;;25.20;1.00;;;;;;10335143;28;20540;-85
2022/05/23 12:30:20;;;;;;;2.60;0.90;;;25.30;1.00;;;;;;10320047;28;20210;-84
2022/05/23 12:35:57;;;;;;;1.90;1.13;;;25.10;1.00;;;;;;10334452;28;20307;-79
2022/05/23 12:41:41;;;;;;;3.42;1.25;;;25.00;1.00;;;;;;10347882;28;20194;-84
2022/05/23 12:47:22;;;;;;;1.30;1.15;;;24.90;1.00;;;;;;10324865;28;20313;-81
2022/05/23 12:53:05;;;;;;;2.90;1.50;;;25.00;1.00;;;;;;10347462;28;20204;-83
2022/05/23 12:58:48;;;;;;;1.80;1.13;;;25.30;1.00;;;;;;10334679;28;20370;-85
2022/05/23 13:04:27;;;;;;;1.42;0.90;;;25.30;1.00;;;;;;10337680;28;20245;-80
2022/05/23 13:10:01;;;;;;;0.90;0.90;;;25.10;1.00;;;;;;10333740;28;20282;-84
2022/05/23 13:15:29;;;;;;;2.72;1.27;;;24.80;1.00;;;;;;10337807;28;20521;-81
2022/05/23 13:26:57;;;;;;;1.58;1.20;;;24.80;1.00;;;;;;10332716;28;20306;-82
2022/05/23 13:32:19;;;;;;;2.08;1.30;;;24.20;1.00;;;;;;10322268;28;20206;-82
2022/05/23 13:37:40;;;;;;;1.88;1.10;;;24.30;1.00;;;;;;10337547;28;20228;-88
2022/05/23 13:43:18;;;;;;;1.75;1.10;;;24.40;1.00;;;;;;10321797;28;20237;-79
2022/05/23 13:48:50;;;;;;;2.50;1.23;;;23.90;1.00;;;;;;10331607;28;20384;-84
2022/05/23 13:54:20;;;;;;;1.83;1.50;;;23.80;1.00;;;;;;10320929;28;20201;-82
2022/05/23 13:59:58;;;;;;;1.48;1.30;;;23.60;1.00;;;;;;10319289;28;20207;-83
2022/05/23 14:05:20;;;;;;;3.13;1.30;;;23.30;1.00;;;;;;10327606;28;20603;-82
2022/05/23 14:10:45;;;;;;;3.08;1.70;;;23.40;1.00;;;;;;10340666;28;20210;-82
2022/05/23 14:16:06;;;;;;;3.05;1.55;;;23.20;1.00;;;;;;10346474;28;20232;-86
2022/05/23 14:21:37;;;;;;;2.65;1.65;;;22.80;1.00;;;;;;10323686;28;20224;-86
2022/05/23 14:27:31;;;;;;;2.85;1.58;;;22.50;1.00;;;;;;10325902;28;20230;-82
2022/05/23 14:32:56;;;;;;;4.47;1.77;;;22.20;1.00;;;;;;10319848;28;20312;-83
2022/05/23 14:38:25;;;;;;;2.05;1.60;;;22.20;1.00;;;;;;10336120;28;20229;-84
2022/05/23 14:44:17;;;;;;;3.95;2.13;;;22.30;1.00;;;;;;10342542;28;20229;-82
2022/05/23 14:49:43;;;;;;;2.03;1.50;;;22.20;1.00;;;;;;10336103;28;20209;-82
2022/05/23 14:55:19;;;;;;;1.92;1.45;;;22.20;1.00;;;;;;10324928;28;20240;-83
2022/05/23 15:00:55;;;;;;;5.60;2.67;;;22.00;1.00;;;;;;10331130;28;20539;-84
2022/05/23 15:06:18;;;;;;;4.10;1.92;;;21.90;1.00;;;;;;10343057;28;20217;-82
2022/05/23 15:11:41;;;;;;;2.20;1.87;;;21.50;1.00;;;;;;10352021;28;20471;-82
2022/05/23 15:17:03;;;;;;;3.00;2.15;;;21.20;1.00;;;;;;10340772;28;20201;-82
2022/05/23 15:22:30;;;;;;;3.75;1.85;;;21.00;1.00;;;;;;10340942;28;20499;-82
2022/05/23 15:27:53;;;;;;;2.60;1.77;;;20.80;1.00;;;;;;10356644;28;20269;-82
2022/05/23 15:33:14;;;;;;;3.40;2.13;;;20.50;1.00;;;;;;10340012;28;20395;-81
2022/05/23 15:38:36;;;;;;;7.10;2.33;;;20.20;1.00;;;;;;10340717;28;20369;-82
2022/05/23 15:43:58;;;;;;;4.18;3.50;;;20.10;1.00;;;;;;10327362;28;20221;-82
2022/05/23 15:49:21;;;;;;;6.55;3.28;;;20.20;1.00;;;;;;10327623;28;20194;-82
2022/05/23 15:54:42;;;;;;;2.55;2.08;;;20.00;1.00;;;;;;10336469;28;20186;-82
2022/05/23 16:00:15;;;;;;;4.25;2.20;;;19.90;1.00;;;;;;10354410;28;20201;-80
2022/05/23 16:05:42;;;;;;;3.67;2.03;;;19.90;1.00;;;;;;10355215;28;20222;-83
2022/05/23 16:11:14;;;;;;;1.98;1.60;;;19.70;1.00;;;;;;10340158;28;20276;-82
2022/05/23 16:16:35;;;;;;;2.38;1.65;;;19.70;1.00;;;;;;10340290;28;20214;-83
2022/05/23 16:22:05;;;;;;;5.53;2.53;;;19.60;1.00;;;;;;10354106;28;20388;-82
2022/05/23 16:27:27;;;;;;;1.95;1.55;;;19.50;1.00;;;;;;10351762;28;20286;-82
2022/05/23 16:38:28;;;;;;;3.67;1.73;;;19.20;1.00;;;;;;10353535;28;20189;-82
2022/05/23 16:43:53;;;;;;;6.25;2.20;;;19.20;1.00;;;;;;10354296;28;20221;-82
2022/05/23 16:49:14;;;;;;;2.10;1.42;;;19.00;1.00;;;;;;10356870;28;20189;-83
2022/05/23 16:54:36;;;;;;;3.55;1.88;;;19.00;1.00;;;;;;10362788;28;20197;-82
2022/05/23 16:59:59;;;;;;;2.58;1.92;;;18.90;1.00;;;;;;10333878;28;20194;-82
2022/05/23 17:05:21;;;;;;;5.70;2.45;;;18.70;1.00;;;;;;10320792;28;20233;-83
2022/05/23 17:10:43;;;;;;;5.00;2.10;;;18.70;1.00;;;;;;10346714;28;20210;-81
2022/05/23 17:16:05;;;;;;;2.97;1.95;;;18.70;1.00;;;;;;10347055;28;20202;-83
2022/05/23 17:21:27;;;;;;;2.70;2.00;;;18.80;1.00;;;;;;10346686;28;20383;-83
2022/05/23 17:26:48;;;;;;;6.13;2.20;;;18.60;1.00;;;;;;10346489;28;20301;-83
2022/05/23 17:32:10;;;;;;;4.15;2.28;;;18.30;1.00;;;;;;10345878;28;20240;-83
2022/05/23 17:37:31;;;;;;;4.75;2.75;;;18.10;1.00;;;;;;10346406;28;20504;-83
2022/05/23 17:42:54;;;;;;;3.75;2.47;;;18.10;1.00;;;;;;10346158;28;20193;-83
2022/05/23 17:48:15;;;;;;;3.72;2.15;;;18.10;1.00;;;;;;10345423;28;20205;-83
2022/05/23 17:53:37;;;;;;;5.28;2.53;;;18.00;1.00;;;;;;10345790;28;20523;-82
2022/05/23 17:58:58;;;;;;;7.15;3.50;;;17.80;1.00;;;;;;10331422;28;20201;-83
2022/05/23 18:04:20;;;;;;;3.75;2.72;;;17.60;1.00;;;;;;10344541;28;20221;-83
2022/05/23 18:09:41;;;;;;;4.18;3.05;;;17.50;28.50;;;;;;10358722;28;20201;-83
2022/05/23 18:20:43;;;;;;;4.55;3.10;;;17.40;99.90;;;;;;10344510;28;20237;-83
2022/05/23 18:26:04;;;;;;;5.55;3.00;;;17.20;99.90;;;;;;10358659;28;20281;-83
2022/05/23 18:31:32;;;;;;;6.30;3.88;;;17.10;1.00;;;;;;10362332;28;20554;-83
2022/05/23 18:36:54;;;;;;;10.25;6.70;;;17.00;1.00;;;;;;10357800;28;20546;-83
2022/05/23 18:42:16;;;;;;;4.60;3.40;;;17.00;88.70;;;;;;10343425;28;20515;-83
2022/05/23 18:47:37;;;;;;;3.92;3.10;;;16.90;99.90;;;;;;10329988;28;20236;-83
2022/05/23 18:52:58;;;;;;;18.25;4.53;;;16.80;1.00;;;;;;10342916;28;20580;-83
2022/05/23 18:58:20;;;;;;;4.30;3.17;;;16.50;1.00;;;;;;10329389;28;20200;-83
2022/05/23 19:03:56;;;;;;;3.83;3.42;;;16.30;99.90;;;;;;10330855;28;20232;-83
2022/05/23 19:09:24;;;;;;;3.72;2.78;;;16.20;1.00;;;;;;10356910;28;20196;-83
2022/05/23 19:14:47;;;;;;;6.25;3.63;;;16.00;1.00;;;;;;10356759;28;20200;-82
2022/05/23 19:20:09;;;;;;;8.70;4.72;;;15.80;99.90;;;;;;10342341;28;20242;-83
2022/05/23 19:25:31;;;;;;;12.55;4.78;;;15.60;99.90;;;;;;10341254;28;20229;-83
2022/05/23 19:30:54;;;;;;;9.02;4.35;;;15.40;12.70;;;;;;10366921;28;20211;-83
2022/05/23 19:36:16;;;;;;;10.52;5.32;;;15.30;2.40;;;;;;10355210;28;20241;-82
2022/05/23 19:41:38;;;;;;;7.25;4.85;;;15.20;99.90;;;;;;10354863;28;20479;-83
2022/05/23 19:47:00;;;;;;;8.68;5.00;;;15.10;1.00;;;;;;10340918;28;20253;-83
2022/05/23 19:52:21;;;;;;;7.57;4.35;;;14.90;99.90;;;;;;10356216;28;20197;-83
2022/05/23 19:57:47;;;;;;;7.78;4.50;;;14.70;99.90;;;;;;10354727;28;20246;-84
2022/05/23 20:08:48;;;;;;;7.30;4.35;;;14.50;1.00;;;;;;10353776;28;20206;-82
2022/05/23 20:14:11;;;;;;;8.32;5.13;;;14.40;1.00;;;;;;10327318;28;20232;-83
2022/05/23 20:19:32;;;;;;;9.73;6.03;;;14.30;1.00;;;;;;10340773;28;20193;-82
2022/05/23 20:24:54;;;;;;;9.40;6.03;;;14.20;1.00;;;;;;10344251;28;20281;-82
2022/05/23 20:30:17;;;;;;;6.85;4.80;;;14.10;1.00;;;;;;10356560;28;20204;-83
2022/05/23 20:35:40;;;;;;;10.77;5.70;;;14.10;1.00;;;;;;10348210;28;20307;-82
2022/05/23 20:41:04;;;;;;;10.10;5.22;;;14.10;1.00;;;;;;10347851;28;20211;-82
2022/05/23 20:46:28;;;;;;;10.27;6.15;;;14.00;1.00;;;;;;10348151;28;20278;-82
2022/05/23 20:51:50;;;;;;;6.05;4.78;;;13.90;1.00;;;;;;10348053;28;20210;-82
2022/05/23 20:57:11;;;;;;;10.07;4.70;;;13.90;1.00;;;;;;10334127;28;20203;-82
2022/05/23 21:02:32;;;;;;;6.28;3.63;;;13.80;1.00;;;;;;10334318;28;20249;-83
2022/05/23 21:07:54;;;;;;;6.25;4.10;;;13.80;1.00;;;;;;10332812;28;20270;-82
2022/05/23 21:13:16;;;;;;;6.78;4.60;;;13.70;1.00;;;;;;10361428;28;20393;-82
2022/05/23 21:18:37;;;;;;;7.43;4.90;;;13.70;1.00;;;;;;10346581;28;20197;-82
2022/05/23 21:23:58;;;;;;;6.57;4.50;;;13.70;1.00;;;;;;10360577;28;20397;-82
2022/05/23 21:29:19;;;;;;;7.78;4.55;;;13.60;1.00;;;;;;10345840;28;20465;-82
2022/05/23 21:34:41;;;;;;;6.88;3.88;;;13.60;1.00;;;;;;10345947;28;20285;-81
2022/05/23 21:51:26;;;;;;;4.60;3.33;;;13.40;1.00;;;;;;10345510;28;20501;-82
2022/05/23 21:56:54;;;;;;;5.47;3.47;;;13.40;1.00;;;;;;10359378;28;20204;-83
2022/05/23 22:02:19;;;;;;;5.82;3.45;;;13.40;1.00;;;;;;10331972;28;20483;-83
2022/05/23 22:07:40;;;;;;;5.72;3.80;;;13.40;1.00;;;;;;10344535;28;20397;-82
2022/05/23 22:13:02;;;;;;;7.03;4.53;;;13.40;1.00;;;;;;10358759;28;20193;-82
2022/05/23 22:18:24;;;;;;;6.05;4.15;;;13.30;1.00;;;;;;10358180;28;20490;-82
2022/05/23 22:23:46;;;;;;;5.22;4.07;;;13.20;1.00;;;;;;10357870;28;20204;-82
2022/05/23 22:29:07;;;;;;;7.05;3.67;;;13.20;1.00;;;;;;10351235;28;20215;-82
2022/05/23 22:34:29;;;;;;;6.43;3.80;;;13.10;1.00;;;;;;10343625;28;20236;-83
2022/05/23 22:39:50;;;;;;;11.80;4.65;;;13.10;1.00;;;;;;10357623;28;20400;-82
2022/05/23 22:45:12;;;;;;;6.60;3.85;;;13.00;1.00;;;;;;10357230;28;20219;-82
2022/05/23 22:50:34;;;;;;;6.85;4.00;;;13.00;1.00;;;;;;10356725;28;20243;-82
2022/05/23 22:56:04;;;;;;;6.13;4.57;;;12.90;1.00;;;;;;10297009;28;20434;-81
2022/05/23 23:01:28;;;;;;;8.63;5.13;;;12.80;1.00;;;;;;10343112;28;20259;-82
2022/05/23 23:07:00;;;;;;;7.80;4.53;;;12.70;1.00;;;;;;10329514;28;20443;-82
2022/05/23 23:12:21;;;;;;;5.72;4.20;;;12.70;1.00;;;;;;10357167;28;20376;-81
2022/05/23 23:17:43;;;;;;;7.63;4.15;;;12.70;1.00;;;;;;10357389;28;20221;-82
2022/05/23 23:23:05;;;;;;;6.75;4.80;;;12.70;1.00;;;;;;10313298;28;20553;-82
2022/05/23 23:28:26;;;;;;;10.23;4.35;;;12.70;1.00;;;;;;10355621;28;20229;-82
2022/05/23 23:39:30;;;;;;;7.45;4.40;;;12.60;1.00;;;;;;10341469;28;20203;-81
2022/05/23 23:44:52;;;;;;;8.73;5.03;;;12.60;1.00;;;;;;10355359;28;20245;-82
2022/05/23 23:50:14;;;;;;;7.50;5.20;;;12.50;1.00;;;;;;10355635;28;20253;-83
2022/05/23 23:55:36;;;;;;;7.00;4.18;;;12.50;1.00;;;;;;10355233;28;20493;-83
